sensor_id;sensor_type;location;lat;lon;timestamp;pressure;altitude;pressure_sealevel;temperature;humidity
25080;BME280;13071;48.868;9.996;2023-05-21T00:01:40;96115.28;;;16.11;79.89
25080;BME280;13071;48.868;9.996;2023-05-21T00:04:06;96125.38;;;16.07;80.56
25080;BME280;13071;48.868;9.996;2023-05-21T00:06:33;96120.22;;;15.98;80.92
25080;BME280;13071;48.868;9.996;2023-05-21T00:09:01;96123.34;;;15.97;80.93
25080;BME280;13071;48.868;9.996;2023-05-21T00:11:27;96120.66;;;16.01;80.87
25080;BME280;13071;48.868;9.996;2023-05-21T00:13:57;96116.69;;;15.94;81.02
25080;BME280;13071;48.868;9.996;2023-05-21T00:16:24;96116.28;;;15.92;81.23
25080;BME280;13071;48.868;9.996;2023-05-21T00:18:51;96108.78;;;15.82;81.61
25080;BME280;13071;48.868;9.996;2023-05-21T00:21:18;96108.34;;;15.77;82.04
25080;BME280;13071;48.868;9.996;2023-05-21T00:23:47;96102.03;;;15.69;82.28
25080;BME280;13071;48.868;9.996;2023-05-21T00:26:14;96098.00;;;15.56;82.75
25080;BME280;13071;48.868;9.996;2023-05-21T00:28:40;96106.63;;;15.58;82.55
25080;BME280;13071;48.868;9.996;2023-05-21T00:31:08;96103.13;;;15.61;82.40
25080;BME280;13071;48.868;9.996;2023-05-21T00:33:35;96092.59;;;15.60;82.77
25080;BME280;13071;48.868;9.996;2023-05-21T00:36:02;96096.72;;;15.46;83.61
25080;BME280;13071;48.868;9.996;2023-05-21T00:38:30;96090.47;;;15.46;83.24
25080;BME280;13071;48.868;9.996;2023-05-21T00:40:59;96099.44;;;15.46;83.08
25080;BME280;13071;48.868;9.996;2023-05-21T00:43:25;96082.63;;;15.41;83.02
25080;BME280;13071;48.868;9.996;2023-05-21T00:45:52;96086.44;;;15.33;83.65
25080;BME280;13071;48.868;9.996;2023-05-21T00:48:22;96081.00;;;15.33;84.02
25080;BME280;13071;48.868;9.996;2023-05-21T00:50:49;96088.34;;;15.29;84.00
25080;BME280;13071;48.868;9.996;2023-05-21T00:53:16;96079.97;;;15.11;85.16
25080;BME280;13071;48.868;9.996;2023-05-21T00:55:43;96082.03;;;15.21;84.40
25080;BME280;13071;48.868;9.996;2023-05-21T00:58:10;96078.16;;;15.22;84.47
25080;BME280;13071;48.868;9.996;2023-05-21T01:00:37;96074.97;;;15.17;85.06
25080;BME280;13071;48.868;9.996;2023-05-21T01:03:05;96073.88;;;14.91;86.00
25080;BME280;13071;48.868;9.996;2023-05-21T01:05:33;96074.38;;;15.00;85.93
25080;BME280;13071;48.868;9.996;2023-05-21T01:08:00;96076.84;;;15.09;85.56
25080;BME280;13071;48.868;9.996;2023-05-21T01:10:28;96074.94;;;15.13;85.42
25080;BME280;13071;48.868;9.996;2023-05-21T01:12:56;96083.84;;;15.10;85.20
25080;BME280;13071;48.868;9.996;2023-05-21T01:15:24;96081.88;;;15.07;85.47
25080;BME280;13071;48.868;9.996;2023-05-21T01:17:51;96079.50;;;15.05;85.96
25080;BME280;13071;48.868;9.996;2023-05-21T01:20:20;96074.94;;;15.13;85.87
25080;BME280;13071;48.868;9.996;2023-05-21T01:22:52;96071.44;;;15.16;85.52
25080;BME280;13071;48.868;9.996;2023-05-21T01:25:19;96078.00;;;15.08;85.89
25080;BME280;13071;48.868;9.996;2023-05-21T01:27:46;96077.56;;;15.06;86.36
25080;BME280;13071;48.868;9.996;2023-05-21T01:30:13;96069.31;;;14.99;85.85
25080;BME280;13071;48.868;9.996;2023-05-21T01:32:47;96082.88;;;14.95;86.02
25080;BME280;13071;48.868;9.996;2023-05-21T01:35:20;96075.44;;;14.89;86.34
25080;BME280;13071;48.868;9.996;2023-05-21T01:37:52;96077.00;;;14.90;86.35
25080;BME280;13071;48.868;9.996;2023-05-21T01:40:24;96072.25;;;14.83;86.56
25080;BME280;13071;48.868;9.996;2023-05-21T01:42:51;96070.66;;;14.82;87.07
25080;BME280;13071;48.868;9.996;2023-05-21T01:45:18;96079.59;;;14.79;87.33
25080;BME280;13071;48.868;9.996;2023-05-21T01:47:49;96072.88;;;14.73;87.54
25080;BME280;13071;48.868;9.996;2023-05-21T01:50:17;96073.34;;;14.79;87.05
25080;BME280;13071;48.868;9.996;2023-05-21T01:52:48;96068.59;;;14.72;87.51
25080;BME280;13071;48.868;9.996;2023-05-21T01:55:17;96065.81;;;14.68;87.44
25080;BME280;13071;48.868;9.996;2023-05-21T01:57:48;96077.09;;;14.67;88.05
25080;BME280;13071;48.868;9.996;2023-05-21T02:00:16;96071.59;;;14.63;87.73
25080;BME280;13071;48.868;9.996;2023-05-21T02:02:43;96071.66;;;14.70;87.95
25080;BME280;13071;48.868;9.996;2023-05-21T02:05:09;96062.03;;;14.77;87.43
25080;BME280;13071;48.868;9.996;2023-05-21T02:07:36;96069.72;;;14.71;87.97
25080;BME280;13071;48.868;9.996;2023-05-21T02:10:03;96072.78;;;14.66;88.52
25080;BME280;13071;48.868;9.996;2023-05-21T02:12:31;96066.63;;;14.69;88.45
25080;BME280;13071;48.868;9.996;2023-05-21T02:14:58;96069.81;;;14.75;88.16
25080;BME280;13071;48.868;9.996;2023-05-21T02:17:24;96073.28;;;14.75;88.05
25080;BME280;13071;48.868;9.996;2023-05-21T02:19:55;96066.19;;;14.67;88.79
25080;BME280;13071;48.868;9.996;2023-05-21T02:22:22;96070.81;;;14.63;88.63
25080;BME280;13071;48.868;9.996;2023-05-21T02:24:48;96067.72;;;14.64;88.96
25080;BME280;13071;48.868;9.996;2023-05-21T02:27:15;96074.72;;;14.65;88.93
25080;BME280;13071;48.868;9.996;2023-05-21T02:29:43;96068.56;;;14.68;88.42
25080;BME280;13071;48.868;9.996;2023-05-21T02:32:10;96065.03;;;14.68;88.44
25080;BME280;13071;48.868;9.996;2023-05-21T02:34:36;96065.47;;;14.70;88.40
25080;BME280;13071;48.868;9.996;2023-05-21T02:37:06;96062.22;;;14.61;88.71
25080;BME280;13071;48.868;9.996;2023-05-21T02:39:34;96054.44;;;14.59;89.06
25080;BME280;13071;48.868;9.996;2023-05-21T02:42:00;96053.31;;;14.64;88.93
25080;BME280;13071;48.868;9.996;2023-05-21T02:44:27;96053.03;;;14.73;88.04
25080;BME280;13071;48.868;9.996;2023-05-21T02:46:55;96058.84;;;14.71;88.44
25080;BME280;13071;48.868;9.996;2023-05-21T02:49:21;96049.56;;;14.76;87.61
25080;BME280;13071;48.868;9.996;2023-05-21T02:51:48;96057.72;;;14.76;87.50
25080;BME280;13071;48.868;9.996;2023-05-21T02:54:14;96063.97;;;14.76;87.85
25080;BME280;13071;48.868;9.996;2023-05-21T02:56:41;96061.31;;;14.80;87.59
25080;BME280;13071;48.868;9.996;2023-05-21T02:59:08;96060.53;;;14.79;87.54
25080;BME280;13071;48.868;9.996;2023-05-21T03:01:34;96057.38;;;14.77;87.69
25080;BME280;13071;48.868;9.996;2023-05-21T03:04:03;96056.63;;;14.80;87.11
25080;BME280;13071;48.868;9.996;2023-05-21T03:06:29;96050.66;;;14.71;87.11
25080;BME280;13071;48.868;9.996;2023-05-21T03:08:56;96053.53;;;14.52;88.30
25080;BME280;13071;48.868;9.996;2023-05-21T03:11:23;96054.56;;;14.40;89.65
25080;BME280;13071;48.868;9.996;2023-05-21T03:13:50;96049.97;;;14.48;89.06
25080;BME280;13071;48.868;9.996;2023-05-21T03:16:16;96060.13;;;14.51;88.77
25080;BME280;13071;48.868;9.996;2023-05-21T03:18:43;96053.84;;;14.47;88.84
25080;BME280;13071;48.868;9.996;2023-05-21T03:21:11;96052.56;;;14.37;89.11
25080;BME280;13071;48.868;9.996;2023-05-21T03:23:39;96055.28;;;14.37;89.23
25080;BME280;13071;48.868;9.996;2023-05-21T03:26:06;96049.66;;;14.26;90.17
25080;BME280;13071;48.868;9.996;2023-05-21T03:28:33;96048.84;;;14.26;90.14
25080;BME280;13071;48.868;9.996;2023-05-21T03:31:00;96045.53;;;14.36;90.23
25080;BME280;13071;48.868;9.996;2023-05-21T03:33:27;96045.69;;;14.47;88.97
25080;BME280;13071;48.868;9.996;2023-05-21T03:35:53;96054.06;;;14.35;89.43
25080;BME280;13071;48.868;9.996;2023-05-21T03:38:21;96051.53;;;14.45;88.86
25080;BME280;13071;48.868;9.996;2023-05-21T03:40:48;96056.97;;;14.45;88.91
25080;BME280;13071;48.868;9.996;2023-05-21T03:43:15;96052.59;;;14.41;88.83
25080;BME280;13071;48.868;9.996;2023-05-21T03:45:41;96039.53;;;14.50;89.06
25080;BME280;13071;48.868;9.996;2023-05-21T03:48:08;96056.56;;;14.47;88.96
25080;BME280;13071;48.868;9.996;2023-05-21T03:50:35;96054.59;;;14.44;88.96
25080;BME280;13071;48.868;9.996;2023-05-21T03:53:01;96060.22;;;14.32;89.87
25080;BME280;13071;48.868;9.996;2023-05-21T03:55:29;96063.50;;;14.41;89.21
25080;BME280;13071;48.868;9.996;2023-05-21T03:57:56;96067.81;;;14.19;90.02
25080;BME280;13071;48.868;9.996;2023-05-21T04:00:23;96065.81;;;14.16;91.09
25080;BME280;13071;48.868;9.996;2023-05-21T04:02:49;96063.56;;;14.21;90.31
25080;BME280;13071;48.868;9.996;2023-05-21T04:05:16;96069.53;;;14.04;90.97
25080;BME280;13071;48.868;9.996;2023-05-21T04:07:42;96072.00;;;14.13;90.94
25080;BME280;13071;48.868;9.996;2023-05-21T04:10:10;96073.03;;;14.31;89.36
25080;BME280;13071;48.868;9.996;2023-05-21T04:12:38;96075.34;;;14.03;90.14
25080;BME280;13071;48.868;9.996;2023-05-21T04:15:06;96072.91;;;14.20;90.03
25080;BME280;13071;48.868;9.996;2023-05-21T04:17:33;96071.38;;;14.23;90.06
25080;BME280;13071;48.868;9.996;2023-05-21T04:20:00;96068.13;;;14.14;90.61
25080;BME280;13071;48.868;9.996;2023-05-21T04:22:26;96072.84;;;14.17;89.98
25080;BME280;13071;48.868;9.996;2023-05-21T04:24:53;96080.44;;;14.31;89.30
25080;BME280;13071;48.868;9.996;2023-05-21T04:27:20;96077.56;;;14.20;89.77
25080;BME280;13071;48.868;9.996;2023-05-21T04:29:49;96081.31;;;14.12;90.25
25080;BME280;13071;48.868;9.996;2023-05-21T04:32:16;96085.13;;;14.07;90.64
25080;BME280;13071;48.868;9.996;2023-05-21T04:34:43;96087.94;;;14.11;90.23
25080;BME280;13071;48.868;9.996;2023-05-21T04:37:09;96084.66;;;14.28;89.82
25080;BME280;13071;48.868;9.996;2023-05-21T04:39:36;96081.59;;;14.30;89.58
25080;BME280;13071;48.868;9.996;2023-05-21T04:42:05;96090.16;;;14.32;89.05
25080;BME280;13071;48.868;9.996;2023-05-21T04:44:35;96087.16;;;14.37;89.23
25080;BME280;13071;48.868;9.996;2023-05-21T04:47:03;96092.84;;;14.28;89.79
25080;BME280;13071;48.868;9.996;2023-05-21T04:49:30;96089.09;;;14.36;89.05
25080;BME280;13071;48.868;9.996;2023-05-21T04:51:59;96103.06;;;14.35;89.42
25080;BME280;13071;48.868;9.996;2023-05-21T04:54:25;96105.56;;;14.20;90.47
25080;BME280;13071;48.868;9.996;2023-05-21T04:56:52;96100.13;;;14.47;89.07
25080;BME280;13071;48.868;9.996;2023-05-21T04:59:19;96101.81;;;14.55;88.00
25080;BME280;13071;48.868;9.996;2023-05-21T05:01:45;96102.06;;;14.73;87.67
25080;BME280;13071;48.868;9.996;2023-05-21T05:04:14;96104.00;;;14.72;87.42
25080;BME280;13071;48.868;9.996;2023-05-21T05:06:40;96104.81;;;14.76;87.29
25080;BME280;13071;48.868;9.996;2023-05-21T05:09:07;96109.94;;;14.81;87.04
25080;BME280;13071;48.868;9.996;2023-05-21T05:11:33;96105.22;;;14.75;87.02
25080;BME280;13071;48.868;9.996;2023-05-21T05:14:00;96097.25;;;14.92;86.16
25080;BME280;13071;48.868;9.996;2023-05-21T05:16:27;96099.16;;;14.88;85.88
25080;BME280;13071;48.868;9.996;2023-05-21T05:18:53;96087.78;;;14.83;86.36
25080;BME280;13071;48.868;9.996;2023-05-21T05:21:22;96094.97;;;14.94;85.61
25080;BME280;13071;48.868;9.996;2023-05-21T05:23:48;96090.03;;;15.07;84.90
25080;BME280;13071;48.868;9.996;2023-05-21T05:26:15;96088.97;;;15.15;84.22
25080;BME280;13071;48.868;9.996;2023-05-21T05:28:42;96088.72;;;15.27;83.43
25080;BME280;13071;48.868;9.996;2023-05-21T05:31:10;96093.50;;;15.37;82.56
25080;BME280;13071;48.868;9.996;2023-05-21T05:33:36;96084.91;;;15.35;82.69
25080;BME280;13071;48.868;9.996;2023-05-21T05:36:03;96083.41;;;15.41;83.31
25080;BME280;13071;48.868;9.996;2023-05-21T05:38:32;96087.72;;;15.42;82.60
25080;BME280;13071;48.868;9.996;2023-05-21T05:40:59;96093.31;;;15.53;81.99
25080;BME280;13071;48.868;9.996;2023-05-21T05:43:25;96086.78;;;15.65;81.43
25080;BME280;13071;48.868;9.996;2023-05-21T05:45:52;96093.81;;;15.66;81.39
25080;BME280;13071;48.868;9.996;2023-05-21T05:48:19;96092.38;;;15.79;80.53
25080;BME280;13071;48.868;9.996;2023-05-21T05:50:46;96082.94;;;15.69;82.15
25080;BME280;13071;48.868;9.996;2023-05-21T05:53:13;96088.13;;;15.81;80.72
25080;BME280;13071;48.868;9.996;2023-05-21T05:55:41;96089.06;;;15.99;80.52
25080;BME280;13071;48.868;9.996;2023-05-21T05:58:08;96085.97;;;16.05;80.51
25080;BME280;13071;48.868;9.996;2023-05-21T06:00:35;96083.25;;;16.05;80.53
25080;BME280;13071;48.868;9.996;2023-05-21T06:03:02;96088.25;;;15.95;81.38
25080;BME280;13071;48.868;9.996;2023-05-21T06:05:29;96090.44;;;16.27;80.61
25080;BME280;13071;48.868;9.996;2023-05-21T06:07:55;96094.84;;;16.42;80.04
25080;BME280;13071;48.868;9.996;2023-05-21T06:10:22;96088.25;;;16.50;79.26
25080;BME280;13071;48.868;9.996;2023-05-21T06:12:50;96088.66;;;16.52;78.63
25080;BME280;13071;48.868;9.996;2023-05-21T06:15:17;96089.53;;;16.63;77.86
25080;BME280;13071;48.868;9.996;2023-05-21T06:17:44;96090.38;;;16.74;77.62
25080;BME280;13071;48.868;9.996;2023-05-21T06:20:11;96096.63;;;16.75;77.76
25080;BME280;13071;48.868;9.996;2023-05-21T06:22:39;96098.63;;;16.81;78.04
25080;BME280;13071;48.868;9.996;2023-05-21T06:25:07;96099.81;;;16.84;77.05
25080;BME280;13071;48.868;9.996;2023-05-21T06:27:34;96086.19;;;16.98;76.09
25080;BME280;13071;48.868;9.996;2023-05-21T06:30:03;96091.75;;;17.16;75.78
25080;BME280;13071;48.868;9.996;2023-05-21T06:32:30;96088.63;;;17.17;75.25
25080;BME280;13071;48.868;9.996;2023-05-21T06:34:56;96082.72;;;17.01;77.08
25080;BME280;13071;48.868;9.996;2023-05-21T06:37:23;96100.78;;;17.34;75.44
25080;BME280;13071;48.868;9.996;2023-05-21T06:39:50;96096.53;;;17.40;74.38
25080;BME280;13071;48.868;9.996;2023-05-21T06:42:16;96089.84;;;17.38;74.75
25080;BME280;13071;48.868;9.996;2023-05-21T06:44:43;96087.19;;;17.55;74.54
25080;BME280;13071;48.868;9.996;2023-05-21T06:47:11;96094.94;;;17.43;73.67
25080;BME280;13071;48.868;9.996;2023-05-21T06:49:37;96099.72;;;17.63;73.30
25080;BME280;13071;48.868;9.996;2023-05-21T06:52:04;96096.22;;;17.74;73.37
25080;BME280;13071;48.868;9.996;2023-05-21T06:54:31;96096.56;;;17.58;73.82
25080;BME280;13071;48.868;9.996;2023-05-21T06:56:58;96104.44;;;17.74;73.51
25080;BME280;13071;48.868;9.996;2023-05-21T06:59:25;96098.19;;;17.84;72.90
25080;BME280;13071;48.868;9.996;2023-05-21T07:01:52;96104.47;;;17.81;74.02
25080;BME280;13071;48.868;9.996;2023-05-21T07:04:20;96102.09;;;17.76;74.23
25080;BME280;13071;48.868;9.996;2023-05-21T07:06:47;96096.66;;;17.90;73.49
25080;BME280;13071;48.868;9.996;2023-05-21T07:09:13;96099.38;;;17.86;74.13
25080;BME280;13071;48.868;9.996;2023-05-21T07:11:40;96099.75;;;17.92;73.21
25080;BME280;13071;48.868;9.996;2023-05-21T07:14:07;96101.34;;;18.00;71.62
25080;BME280;13071;48.868;9.996;2023-05-21T07:16:34;96099.00;;;18.27;70.82
25080;BME280;13071;48.868;9.996;2023-05-21T07:19:01;96111.53;;;18.38;70.56
25080;BME280;13071;48.868;9.996;2023-05-21T07:21:28;96101.72;;;18.37;70.81
25080;BME280;13071;48.868;9.996;2023-05-21T07:23:55;96105.25;;;18.13;72.86
25080;BME280;13071;48.868;9.996;2023-05-21T07:26:22;96111.13;;;18.58;71.84
25080;BME280;13071;48.868;9.996;2023-05-21T07:28:48;96101.31;;;18.74;69.32
25080;BME280;13071;48.868;9.996;2023-05-21T07:31:15;96107.97;;;18.84;70.08
25080;BME280;13071;48.868;9.996;2023-05-21T07:33:42;96104.78;;;18.96;69.47
25080;BME280;13071;48.868;9.996;2023-05-21T07:36:08;96105.16;;;18.94;68.09
25080;BME280;13071;48.868;9.996;2023-05-21T07:38:36;96108.22;;;19.14;68.19
25080;BME280;13071;48.868;9.996;2023-05-21T07:41:04;96106.38;;;18.86;68.95
25080;BME280;13071;48.868;9.996;2023-05-21T07:43:31;96108.72;;;18.98;70.29
25080;BME280;13071;48.868;9.996;2023-05-21T07:45:57;96103.56;;;19.11;67.27
25080;BME280;13071;48.868;9.996;2023-05-21T07:48:24;96108.25;;;19.11;67.29
25080;BME280;13071;48.868;9.996;2023-05-21T07:50:51;96103.53;;;19.18;68.73
25080;BME280;13071;48.868;9.996;2023-05-21T07:53:18;96106.28;;;19.18;69.97
25080;BME280;13071;48.868;9.996;2023-05-21T07:55:46;96096.03;;;19.33;68.00
25080;BME280;13071;48.868;9.996;2023-05-21T07:58:14;96097.09;;;19.57;67.03
25080;BME280;13071;48.868;9.996;2023-05-21T08:00:42;96097.84;;;19.68;65.61
25080;BME280;13071;48.868;9.996;2023-05-21T08:03:09;96105.22;;;19.78;64.27
25080;BME280;13071;48.868;9.996;2023-05-21T08:05:37;96102.53;;;19.64;64.53
25080;BME280;13071;48.868;9.996;2023-05-21T08:08:03;96106.06;;;19.68;64.86
25080;BME280;13071;48.868;9.996;2023-05-21T08:10:30;96108.41;;;19.73;63.25
25080;BME280;13071;48.868;9.996;2023-05-21T08:12:58;96104.03;;;19.79;62.09
25080;BME280;13071;48.868;9.996;2023-05-21T08:15:25;96103.28;;;19.75;63.86
25080;BME280;13071;48.868;9.996;2023-05-21T08:17:52;96098.97;;;19.70;61.96
25080;BME280;13071;48.868;9.996;2023-05-21T08:20:18;96107.16;;;19.81;63.66
25080;BME280;13071;48.868;9.996;2023-05-21T08:22:45;96104.88;;;19.72;64.44
25080;BME280;13071;48.868;9.996;2023-05-21T08:25:12;96112.16;;;19.93;63.54
25080;BME280;13071;48.868;9.996;2023-05-21T08:27:39;96101.59;;;19.92;62.79
25080;BME280;13071;48.868;9.996;2023-05-21T08:30:08;96104.22;;;20.09;63.25
25080;BME280;13071;48.868;9.996;2023-05-21T08:32:36;96103.09;;;20.00;61.81
25080;BME280;13071;48.868;9.996;2023-05-21T08:35:03;96107.84;;;19.96;62.04
25080;BME280;13071;48.868;9.996;2023-05-21T08:37:30;96108.84;;;20.19;62.85
25080;BME280;13071;48.868;9.996;2023-05-21T08:39:56;96111.22;;;20.17;62.59
25080;BME280;13071;48.868;9.996;2023-05-21T08:42:27;96111.97;;;20.21;63.21
25080;BME280;13071;48.868;9.996;2023-05-21T08:44:58;96106.00;;;20.30;62.60
25080;BME280;13071;48.868;9.996;2023-05-21T08:47:29;96098.19;;;20.32;62.59
25080;BME280;13071;48.868;9.996;2023-05-21T08:49:57;96101.25;;;20.38;62.05
25080;BME280;13071;48.868;9.996;2023-05-21T08:52:25;96102.47;;;20.30;63.35
25080;BME280;13071;48.868;9.996;2023-05-21T08:54:53;96099.38;;;20.27;62.24
25080;BME280;13071;48.868;9.996;2023-05-21T08:57:24;96093.06;;;20.34;61.57
25080;BME280;13071;48.868;9.996;2023-05-21T08:59:51;96093.94;;;20.20;63.69
25080;BME280;13071;48.868;9.996;2023-05-21T09:02:18;96104.31;;;20.50;64.67
25080;BME280;13071;48.868;9.996;2023-05-21T09:04:47;96099.50;;;20.61;64.31
25080;BME280;13071;48.868;9.996;2023-05-21T09:07:15;96098.28;;;20.66;63.34
25080;BME280;13071;48.868;9.996;2023-05-21T09:09:46;96106.25;;;20.50;65.10
25080;BME280;13071;48.868;9.996;2023-05-21T09:12:14;96105.44;;;20.56;63.78
25080;BME280;13071;48.868;9.996;2023-05-21T09:14:42;96113.53;;;20.71;64.03
25080;BME280;13071;48.868;9.996;2023-05-21T09:17:12;96114.28;;;20.26;64.28
25080;BME280;13071;48.868;9.996;2023-05-21T09:20:08;96114.03;;;20.62;61.71
25080;BME280;13071;48.868;9.996;2023-05-21T09:22:38;96119.91;;;20.60;62.75
25080;BME280;13071;48.868;9.996;2023-05-21T09:25:06;96109.91;;;20.77;61.91
25080;BME280;13071;48.868;9.996;2023-05-21T09:27:33;96115.53;;;21.04;63.21
25080;BME280;13071;48.868;9.996;2023-05-21T09:30:01;96114.31;;;21.08;61.50
25080;BME280;13071;48.868;9.996;2023-05-21T09:32:28;96117.06;;;21.08;60.99
25080;BME280;13071;48.868;9.996;2023-05-21T09:34:54;96114.81;;;21.00;60.03
25080;BME280;13071;48.868;9.996;2023-05-21T09:37:23;96112.09;;;20.96;60.00
25080;BME280;13071;48.868;9.996;2023-05-21T09:39:49;96114.53;;;20.87;63.32
25080;BME280;13071;48.868;9.996;2023-05-21T09:42:19;96111.06;;;21.21;62.43
25080;BME280;13071;48.868;9.996;2023-05-21T09:44:46;96118.00;;;20.95;62.80
25080;BME280;13071;48.868;9.996;2023-05-21T09:47:18;96116.16;;;21.22;60.73
25080;BME280;13071;48.868;9.996;2023-05-21T09:49:47;96113.06;;;21.13;60.17
25080;BME280;13071;48.868;9.996;2023-05-21T09:52:23;96107.72;;;21.36;61.52
25080;BME280;13071;48.868;9.996;2023-05-21T09:54:51;96107.72;;;21.67;60.00
25080;BME280;13071;48.868;9.996;2023-05-21T09:57:22;96107.31;;;21.68;60.76
25080;BME280;13071;48.868;9.996;2023-05-21T09:59:49;96105.38;;;21.35;60.99
25080;BME280;13071;48.868;9.996;2023-05-21T10:02:18;96110.13;;;21.65;60.92
25080;BME280;13071;48.868;9.996;2023-05-21T10:04:47;96097.66;;;21.83;58.34
25080;BME280;13071;48.868;9.996;2023-05-21T10:07:16;96105.31;;;21.99;58.58
25080;BME280;13071;48.868;9.996;2023-05-21T10:09:46;96100.41;;;21.83;58.54
25080;BME280;13071;48.868;9.996;2023-05-21T10:12:13;96099.50;;;21.93;56.66
25080;BME280;13071;48.868;9.996;2023-05-21T10:14:42;96100.78;;;21.85;56.79
25080;BME280;13071;48.868;9.996;2023-05-21T10:17:11;96103.22;;;22.07;55.65
25080;BME280;13071;48.868;9.996;2023-05-21T10:19:38;96103.78;;;22.21;53.42
25080;BME280;13071;48.868;9.996;2023-05-21T10:22:06;96090.06;;;22.41;52.89
25080;BME280;13071;48.868;9.996;2023-05-21T10:24:33;96104.91;;;22.74;52.77
25080;BME280;13071;48.868;9.996;2023-05-21T10:27:02;96101.72;;;22.75;52.76
25080;BME280;13071;48.868;9.996;2023-05-21T10:29:30;96098.47;;;22.80;54.61
25080;BME280;13071;48.868;9.996;2023-05-21T10:31:57;96105.44;;;22.89;54.61
25080;BME280;13071;48.868;9.996;2023-05-21T10:34:27;96107.16;;;23.02;53.19
25080;BME280;13071;48.868;9.996;2023-05-21T10:36:53;96098.28;;;22.91;50.45
25080;BME280;13071;48.868;9.996;2023-05-21T10:39:22;96106.66;;;23.07;52.29
25080;BME280;13071;48.868;9.996;2023-05-21T10:41:58;96099.69;;;22.99;54.23
25080;BME280;13071;48.868;9.996;2023-05-21T10:44:36;96094.59;;;22.78;55.92
25080;BME280;13071;48.868;9.996;2023-05-21T10:47:27;96099.25;;;22.81;55.67
25080;BME280;13071;48.868;9.996;2023-05-21T10:50:07;96104.69;;;22.61;56.73
25080;BME280;13071;48.868;9.996;2023-05-21T10:52:51;96098.88;;;22.56;56.40
25080;BME280;13071;48.868;9.996;2023-05-21T10:55:34;96098.28;;;23.11;55.48
25080;BME280;13071;48.868;9.996;2023-05-21T10:58:22;96095.25;;;23.25;55.42
25080;BME280;13071;48.868;9.996;2023-05-21T11:00:58;96095.41;;;23.18;57.32
25080;BME280;13071;48.868;9.996;2023-05-21T11:03:26;96094.13;;;23.42;56.80
25080;BME280;13071;48.868;9.996;2023-05-21T11:05:54;96085.19;;;23.15;56.13
25080;BME280;13071;48.868;9.996;2023-05-21T11:08:22;96089.38;;;23.62;56.18
25080;BME280;13071;48.868;9.996;2023-05-21T11:10:53;96086.06;;;24.03;52.88
25080;BME280;13071;48.868;9.996;2023-05-21T11:13:22;96092.84;;;24.19;52.70
25080;BME280;13071;48.868;9.996;2023-05-21T11:16:12;96085.88;;;24.46;51.03
25080;BME280;13071;48.868;9.996;2023-05-21T11:19:01;96080.75;;;24.45;51.52
25080;BME280;13071;48.868;9.996;2023-05-21T11:21:29;96072.34;;;24.65;53.32
25080;BME280;13071;48.868;9.996;2023-05-21T11:23:59;96065.72;;;24.30;51.28
25080;BME280;13071;48.868;9.996;2023-05-21T11:26:29;96073.84;;;24.53;52.37
25080;BME280;13071;48.868;9.996;2023-05-21T11:29:06;96079.81;;;24.35;53.25
25080;BME280;13071;48.868;9.996;2023-05-21T11:31:35;96078.81;;;24.90;52.99
25080;BME280;13071;48.868;9.996;2023-05-21T11:34:09;96080.78;;;25.06;51.01
25080;BME280;13071;48.868;9.996;2023-05-21T11:36:37;96074.56;;;24.86;51.92
25080;BME280;13071;48.868;9.996;2023-05-21T11:39:07;96076.72;;;24.78;52.48
25080;BME280;13071;48.868;9.996;2023-05-21T11:41:49;96066.88;;;24.77;52.03
25080;BME280;13071;48.868;9.996;2023-05-21T11:44:15;96075.44;;;25.12;52.05
25080;BME280;13071;48.868;9.996;2023-05-21T11:46:45;96066.09;;;24.77;49.71
25080;BME280;13071;48.868;9.996;2023-05-21T11:49:11;96064.53;;;24.92;51.28
25080;BME280;13071;48.868;9.996;2023-05-21T11:51:39;96059.41;;;24.62;49.98
25080;BME280;13071;48.868;9.996;2023-05-21T11:54:07;96066.81;;;25.10;48.52
25080;BME280;13071;48.868;9.996;2023-05-21T11:56:35;96056.97;;;25.09;47.62
25080;BME280;13071;48.868;9.996;2023-05-21T11:59:13;96063.75;;;25.62;48.57
25080;BME280;13071;48.868;9.996;2023-05-21T12:01:41;96065.09;;;25.95;44.56
25080;BME280;13071;48.868;9.996;2023-05-21T12:04:09;96059.00;;;25.75;47.90
25080;BME280;13071;48.868;9.996;2023-05-21T12:06:36;96060.88;;;25.78;47.38
25080;BME280;13071;48.868;9.996;2023-05-21T12:09:07;96057.91;;;25.98;46.81
25080;BME280;13071;48.868;9.996;2023-05-21T12:11:36;96052.69;;;25.74;46.71
25080;BME280;13071;48.868;9.996;2023-05-21T12:14:06;96058.56;;;26.27;46.33
25080;BME280;13071;48.868;9.996;2023-05-21T12:16:32;96052.00;;;26.34;45.15
25080;BME280;13071;48.868;9.996;2023-05-21T12:18:59;96058.34;;;26.21;44.26
25080;BME280;13071;48.868;9.996;2023-05-21T12:21:28;96048.13;;;26.44;43.41
25080;BME280;13071;48.868;9.996;2023-05-21T12:23:55;96054.56;;;26.28;46.40
25080;BME280;13071;48.868;9.996;2023-05-21T12:26:22;96057.78;;;26.14;45.25
25080;BME280;13071;48.868;9.996;2023-05-21T12:28:50;96048.25;;;25.90;44.03
25080;BME280;13071;48.868;9.996;2023-05-21T12:31:17;96057.22;;;26.06;43.69
25080;BME280;13071;48.868;9.996;2023-05-21T12:33:44;96067.31;;;26.26;43.10
25080;BME280;13071;48.868;9.996;2023-05-21T12:36:20;96061.91;;;25.43;45.69
25080;BME280;13071;48.868;9.996;2023-05-21T12:38:49;96053.47;;;25.75;44.92
25080;BME280;13071;48.868;9.996;2023-05-21T12:41:16;96049.34;;;26.30;42.75
25080;BME280;13071;48.868;9.996;2023-05-21T12:43:43;96055.00;;;26.39;43.54
25080;BME280;13071;48.868;9.996;2023-05-21T12:46:10;96058.50;;;26.52;44.43
25080;BME280;13071;48.868;9.996;2023-05-21T12:48:38;96068.19;;;25.97;45.14
25080;BME280;13071;48.868;9.996;2023-05-21T12:51:05;96070.66;;;26.33;43.83
25080;BME280;13071;48.868;9.996;2023-05-21T12:53:35;96060.56;;;26.27;42.43
25080;BME280;13071;48.868;9.996;2023-05-21T12:56:08;96063.53;;;26.32;42.67
25080;BME280;13071;48.868;9.996;2023-05-21T13:02:21;96062.88;;;26.15;45.36
25080;BME280;13071;48.868;9.996;2023-05-21T13:04:52;96060.56;;;26.27;44.42
25080;BME280;13071;48.868;9.996;2023-05-21T13:07:19;96060.13;;;26.03;44.74
25080;BME280;13071;48.868;9.996;2023-05-21T13:09:46;96056.56;;;26.28;45.53